RYR2FU EGBB-LIRF
Flight info
| Callsign | RYR2FU |
|---|---|
| Flight time | N/A |
| Altitude | 37000 |
| Route | ADMEX Y321 EMKUK UL612 OGULO DCT OKASI DCT OKEKO DCT MOU DCT MADIV DCT MOKIP DCT TUFTA DCT KOGAS DCT MEDAM DCT NITAM DCT MOGBO DCT ELB DCT ELKAP |
| Aircraft | B38M/M-SDE1FGHILORVWXY/HB1 |
Departure
| Time | N/A |
|---|---|
| Airport | Birmingham Airport (EGBB) |
Arrival
| Time | 2026-05-05 19:09 |
|---|---|
| Airport | Rome–Fiumicino Leonardo da Vinci International Airport (LIRF) |
| Time | Latitude | Longitude | Altitude | Speed | Heading |
|---|---|---|---|---|---|
| 2026-05-05 17:14 | 50.65859 | -0.20602 | 7733 ft | 284 kts | 147° |
| 2026-05-05 17:14 | 50.64414 | -0.19088 | 8491 ft | 288 kts | 147° |
| 2026-05-05 17:14 | 50.62731 | -0.17325 | 9353 ft | 293 kts | 147° |
| 2026-05-05 17:14 | 50.61022 | -0.15535 | 10177 ft | 298 kts | 147° |
| 2026-05-05 17:15 | 50.59256 | -0.13689 | 10727 ft | 312 kts | 147° |
| 2026-05-05 17:15 | 50.57411 | -0.11762 | 11269 ft | 324 kts | 147° |
| 2026-05-05 17:15 | 50.55504 | -0.09771 | 11872 ft | 332 kts | 147° |
| 2026-05-05 17:15 | 50.53568 | -0.07753 | 12573 ft | 336 kts | 147° |
| 2026-05-05 17:16 | 50.51609 | -0.05712 | 13261 ft | 339 kts | 147° |
| 2026-05-05 17:16 | 50.49635 | -0.03658 | 13909 ft | 343 kts | 147° |
| 2026-05-05 17:16 | 50.47636 | -0.01580 | 14535 ft | 346 kts | 147° |
| 2026-05-05 17:16 | 50.45623 | 0.00511 | 15132 ft | 349 kts | 147° |
| 2026-05-05 17:17 | 50.43590 | 0.02620 | 15705 ft | 352 kts | 147° |
| 2026-05-05 17:17 | 50.41540 | 0.04743 | 16256 ft | 354 kts | 147° |
| 2026-05-05 17:17 | 50.39479 | 0.06877 | 16779 ft | 357 kts | 147° |
| 2026-05-05 17:17 | 50.37396 | 0.09031 | 17280 ft | 360 kts | 147° |
| 2026-05-05 17:18 | 50.35297 | 0.11199 | 17753 ft | 363 kts | 147° |
| 2026-05-05 17:18 | 50.33185 | 0.13378 | 18223 ft | 365 kts | 147° |
| 2026-05-05 17:18 | 50.31057 | 0.15572 | 18663 ft | 367 kts | 147° |
| 2026-05-05 17:18 | 50.28915 | 0.17777 | 19091 ft | 369 kts | 147° |
| 2026-05-05 17:19 | 50.26765 | 0.19988 | 19496 ft | 372 kts | 147° |
| 2026-05-05 17:19 | 50.24596 | 0.22216 | 19886 ft | 374 kts | 147° |
| 2026-05-05 17:19 | 50.22417 | 0.24453 | 20260 ft | 376 kts | 147° |
| 2026-05-05 17:19 | 50.20223 | 0.26708 | 20620 ft | 378 kts | 147° |
| 2026-05-05 17:20 | 50.18022 | 0.28974 | 20967 ft | 380 kts | 147° |
| 2026-05-05 17:20 | 50.15809 | 0.31250 | 21303 ft | 382 kts | 147° |
| 2026-05-05 17:20 | 50.13584 | 0.33536 | 21626 ft | 384 kts | 147° |
| 2026-05-05 17:20 | 50.11352 | 0.35827 | 21935 ft | 386 kts | 147° |
| 2026-05-05 17:21 | 50.09103 | 0.38132 | 22233 ft | 387 kts | 147° |
| 2026-05-05 17:21 | 50.06849 | 0.40440 | 22518 ft | 389 kts | 147° |
| 2026-05-05 17:21 | 50.04584 | 0.42757 | 22793 ft | 391 kts | 147° |
| 2026-05-05 17:22 | 50.00051 | 0.47385 | 23310 ft | 394 kts | 147° |
| 2026-05-05 17:22 | 49.97756 | 0.49723 | 23563 ft | 395 kts | 147° |
| 2026-05-05 17:22 | 49.95455 | 0.52065 | 23800 ft | 397 kts | 147° |
| 2026-05-05 17:22 | 49.93142 | 0.54417 | 24029 ft | 398 kts | 147° |
| 2026-05-05 17:23 | 49.90823 | 0.56773 | 24252 ft | 399 kts | 147° |
| 2026-05-05 17:23 | 49.88492 | 0.59138 | 24466 ft | 401 kts | 147° |
| 2026-05-05 17:23 | 49.86161 | 0.61515 | 24671 ft | 402 kts | 145° |
| 2026-05-05 17:23 | 49.83996 | 0.64253 | 24872 ft | 403 kts | 140° |
| 2026-05-05 17:24 | 49.81837 | 0.67037 | 25052 ft | 405 kts | 141° |
| 2026-05-05 17:24 | 49.79662 | 0.69805 | 25245 ft | 406 kts | 141° |
| 2026-05-05 17:24 | 49.77470 | 0.72570 | 25430 ft | 407 kts | 141° |
| 2026-05-05 17:24 | 49.75272 | 0.75332 | 25606 ft | 408 kts | 141° |
| 2026-05-05 17:25 | 49.73065 | 0.78098 | 25778 ft | 409 kts | 141° |
| 2026-05-05 17:25 | 49.71597 | 0.79937 | 25890 ft | 410 kts | 141° |
| 2026-05-05 17:25 | 49.68630 | 0.83646 | 26110 ft | 411 kts | 141° |
| 2026-05-05 17:25 | 49.66407 | 0.86423 | 26268 ft | 412 kts | 141° |
| 2026-05-05 17:26 | 49.64174 | 0.89207 | 26423 ft | 413 kts | 141° |
| 2026-05-05 17:26 | 49.61936 | 0.91995 | 26572 ft | 414 kts | 141° |
| 2026-05-05 17:26 | 49.59691 | 0.94788 | 26724 ft | 415 kts | 141° |
| 2026-05-05 17:26 | 49.57443 | 0.97581 | 26865 ft | 416 kts | 141° |
| 2026-05-05 17:27 | 49.55192 | 1.00375 | 27002 ft | 417 kts | 141° |
| 2026-05-05 17:27 | 49.52930 | 1.03178 | 27136 ft | 417 kts | 141° |
| 2026-05-05 17:27 | 49.50663 | 1.05985 | 27266 ft | 418 kts | 141° |
| 2026-05-05 17:27 | 49.48396 | 1.08788 | 27393 ft | 419 kts | 141° |
| 2026-05-05 17:28 | 49.46121 | 1.11598 | 27516 ft | 420 kts | 141° |
| 2026-05-05 17:28 | 49.43841 | 1.14410 | 27636 ft | 421 kts | 141° |
| 2026-05-05 17:28 | 49.41580 | 1.17196 | 27750 ft | 422 kts | 141° |
| 2026-05-05 17:28 | 49.39342 | 1.19950 | 27867 ft | 422 kts | 141° |
| 2026-05-05 17:29 | 49.36993 | 1.22837 | 27980 ft | 423 kts | 141° |
| 2026-05-05 17:29 | 49.34693 | 1.25660 | 28088 ft | 424 kts | 142° |
| 2026-05-05 17:29 | 49.32417 | 1.28449 | 28192 ft | 424 kts | 142° |
| 2026-05-05 17:29 | 49.30110 | 1.31274 | 28294 ft | 425 kts | 142° |
| 2026-05-05 17:30 | 49.27798 | 1.34101 | 28393 ft | 426 kts | 142° |
| 2026-05-05 17:30 | 49.23164 | 1.39758 | 28585 ft | 427 kts | 142° |
| 2026-05-05 17:31 | 49.18511 | 1.45424 | 28765 ft | 428 kts | 142° |
| 2026-05-05 17:31 | 49.13843 | 1.51093 | 28939 ft | 429 kts | 142° |
| 2026-05-05 17:32 | 49.09163 | 1.56763 | 29101 ft | 430 kts | 142° |
| 2026-05-05 17:32 | 49.04464 | 1.62442 | 29254 ft | 431 kts | 142° |
| 2026-05-05 17:33 | 48.99753 | 1.68122 | 29399 ft | 432 kts | 142° |
| 2026-05-05 17:33 | 48.95029 | 1.73803 | 29538 ft | 433 kts | 142° |
| 2026-05-05 17:34 | 48.90294 | 1.79483 | 29670 ft | 434 kts | 142° |
| 2026-05-05 17:34 | 48.85549 | 1.85160 | 29793 ft | 435 kts | 142° |
| 2026-05-05 17:35 | 48.80821 | 1.90805 | 29911 ft | 436 kts | 142° |
| 2026-05-05 17:35 | 48.76052 | 1.96484 | 30023 ft | 436 kts | 142° |
| 2026-05-05 17:36 | 48.71266 | 2.02167 | 30132 ft | 437 kts | 142° |
| 2026-05-05 17:36 | 48.66477 | 2.07844 | 30236 ft | 438 kts | 142° |
| 2026-05-05 17:37 | 48.61679 | 2.13518 | 30333 ft | 438 kts | 142° |
| 2026-05-05 17:37 | 48.56890 | 2.19246 | 30417 ft | 439 kts | 137° |
| 2026-05-05 17:38 | 48.52741 | 2.25996 | 30491 ft | 440 kts | 133° |
| 2026-05-05 17:38 | 48.48592 | 2.32801 | 30580 ft | 440 kts | 133° |
| 2026-05-05 17:39 | 48.44445 | 2.39598 | 30668 ft | 441 kts | 133° |
| 2026-05-05 17:39 | 48.40289 | 2.46391 | 30747 ft | 441 kts | 133° |
| 2026-05-05 17:40 | 48.36123 | 2.53184 | 30818 ft | 442 kts | 133° |
| 2026-05-05 17:40 | 48.31944 | 2.59979 | 30892 ft | 443 kts | 133° |
| 2026-05-05 17:41 | 48.27758 | 2.66769 | 30959 ft | 443 kts | 133° |
| 2026-05-05 17:41 | 48.23596 | 2.73503 | 31032 ft | 443 kts | 133° |
| 2026-05-05 17:42 | 48.19397 | 2.80279 | 31096 ft | 444 kts | 133° |
| 2026-05-05 17:42 | 48.15190 | 2.87050 | 31159 ft | 444 kts | 133° |
| 2026-05-05 17:43 | 48.10975 | 2.93817 | 31219 ft | 445 kts | 133° |
| 2026-05-05 17:43 | 48.06750 | 3.00582 | 31275 ft | 445 kts | 133° |
| 2026-05-05 17:44 | 48.02514 | 3.07346 | 31335 ft | 445 kts | 133° |
| 2026-05-05 17:44 | 47.98279 | 3.14093 | 31387 ft | 446 kts | 133° |
| 2026-05-05 17:45 | 47.94035 | 3.20836 | 31436 ft | 446 kts | 133° |
| 2026-05-05 17:45 | 47.89778 | 3.27583 | 31492 ft | 446 kts | 134° |
| 2026-05-05 17:46 | 47.85520 | 3.34314 | 31528 ft | 447 kts | 134° |
| 2026-05-05 17:46 | 47.81251 | 3.41043 | 31493 ft | 448 kts | 134° |
| 2026-05-05 17:46 | 47.79117 | 3.44402 | 31370 ft | 446 kts | 134° |
| 2026-05-05 17:47 | 47.76987 | 3.47750 | 31243 ft | 445 kts | 134° |
| 2026-05-05 17:47 | 47.74864 | 3.51081 | 31119 ft | 444 kts | 134° |
| 2026-05-05 17:47 | 47.72743 | 3.54407 | 30994 ft | 443 kts | 134° |
| 2026-05-05 17:47 | 47.70625 | 3.57723 | 30868 ft | 442 kts | 134° |
| 2026-05-05 17:48 | 47.68513 | 3.61025 | 30744 ft | 441 kts | 134° |
| 2026-05-05 17:48 | 47.66407 | 3.64314 | 30618 ft | 439 kts | 134° |
| 2026-05-05 17:48 | 47.64331 | 3.67553 | 30495 ft | 438 kts | 134° |
| 2026-05-05 17:48 | 47.62230 | 3.70825 | 30371 ft | 437 kts | 134° |
| 2026-05-05 17:49 | 47.60134 | 3.74086 | 30244 ft | 436 kts | 134° |
| 2026-05-05 17:49 | 47.58046 | 3.77332 | 30120 ft | 435 kts | 134° |
| 2026-05-05 17:49 | 47.55960 | 3.80569 | 30011 ft | 434 kts | 134° |
| 2026-05-05 17:50 | 47.51791 | 3.87027 | 30003 ft | 434 kts | 134° |
| 2026-05-05 17:50 | 47.47618 | 3.93476 | 30001 ft | 434 kts | 134° |
| 2026-05-05 17:51 | 47.43444 | 3.99911 | 30000 ft | 434 kts | 134° |
| 2026-05-05 17:51 | 47.39262 | 4.06341 | 30000 ft | 434 kts | 134° |
| 2026-05-05 17:52 | 47.35079 | 4.12759 | 30000 ft | 434 kts | 134° |
| 2026-05-05 17:52 | 47.30890 | 4.19169 | 30000 ft | 434 kts | 134° |
| 2026-05-05 17:53 | 47.26698 | 4.25569 | 30000 ft | 434 kts | 134° |
| 2026-05-05 17:53 | 47.22503 | 4.31958 | 30000 ft | 434 kts | 134° |
| 2026-05-05 17:54 | 47.18304 | 4.38337 | 30000 ft | 434 kts | 134° |
| 2026-05-05 17:54 | 47.14107 | 4.44698 | 30000 ft | 434 kts | 134° |
| 2026-05-05 17:55 | 47.09926 | 4.51018 | 30000 ft | 434 kts | 134° |
| 2026-05-05 17:55 | 47.05712 | 4.57375 | 30001 ft | 435 kts | 134° |
| 2026-05-05 17:56 | 47.01492 | 4.63724 | 30000 ft | 435 kts | 134° |
| 2026-05-05 17:56 | 46.97265 | 4.70069 | 30000 ft | 435 kts | 135° |
| 2026-05-05 17:57 | 46.93035 | 4.76403 | 29999 ft | 435 kts | 135° |
| 2026-05-05 17:57 | 46.88802 | 4.82724 | 30000 ft | 435 kts | 135° |
| 2026-05-05 17:58 | 46.84561 | 4.89045 | 30000 ft | 435 kts | 135° |
| 2026-05-05 17:58 | 46.80323 | 4.95346 | 30000 ft | 435 kts | 135° |
| 2026-05-05 17:59 | 46.76079 | 5.01639 | 30000 ft | 435 kts | 135° |
| 2026-05-05 17:59 | 46.71834 | 5.07920 | 30000 ft | 435 kts | 135° |
| 2026-05-05 18:00 | 46.67585 | 5.14192 | 30000 ft | 435 kts | 135° |
| 2026-05-05 18:00 | 46.63333 | 5.20453 | 30000 ft | 435 kts | 135° |
| 2026-05-05 18:01 | 46.59077 | 5.26706 | 30000 ft | 435 kts | 135° |
| 2026-05-05 18:01 | 46.54820 | 5.32944 | 30000 ft | 435 kts | 135° |
| 2026-05-05 18:02 | 46.50562 | 5.39170 | 30000 ft | 435 kts | 135° |
| 2026-05-05 18:02 | 46.46323 | 5.45353 | 29998 ft | 435 kts | 135° |
| 2026-05-05 18:03 | 46.42056 | 5.51562 | 30000 ft | 435 kts | 135° |
| 2026-05-05 18:03 | 46.37787 | 5.57760 | 30001 ft | 435 kts | 135° |
| 2026-05-05 18:04 | 46.33516 | 5.63946 | 30000 ft | 435 kts | 135° |
| 2026-05-05 18:04 | 46.29963 | 5.69080 | 29999 ft | 434 kts | 135° |
| 2026-05-05 18:05 | 46.25686 | 5.75250 | 30000 ft | 434 kts | 135° |
| 2026-05-05 18:05 | 46.21400 | 5.81416 | 30000 ft | 434 kts | 135° |
| 2026-05-05 18:06 | 46.17121 | 5.87560 | 29999 ft | 434 kts | 135° |
| 2026-05-05 18:06 | 46.12827 | 5.93708 | 30001 ft | 434 kts | 135° |
| 2026-05-05 18:07 | 46.08538 | 5.99837 | 30000 ft | 434 kts | 135° |
| 2026-05-05 18:07 | 46.04249 | 6.05954 | 30000 ft | 434 kts | 135° |
| 2026-05-05 18:08 | 45.99955 | 6.12066 | 29999 ft | 434 kts | 135° |
| 2026-05-05 18:08 | 45.95658 | 6.18166 | 30004 ft | 434 kts | 136° |
| 2026-05-05 18:08 | 45.93508 | 6.21215 | 29859 ft | 434 kts | 136° |
| 2026-05-05 18:09 | 45.91398 | 6.24202 | 29602 ft | 431 kts | 136° |
| 2026-05-05 18:09 | 45.89263 | 6.27222 | 29357 ft | 430 kts | 136° |
| 2026-05-05 18:09 | 45.87134 | 6.30230 | 29432 ft | 429 kts | 136° |
| 2026-05-05 18:10 | 45.82864 | 6.36253 | 29285 ft | 430 kts | 136° |
| 2026-05-05 18:10 | 45.80734 | 6.39241 | 29087 ft | 428 kts | 136° |
| 2026-05-05 18:10 | 45.78602 | 6.42219 | 28886 ft | 427 kts | 136° |
| 2026-05-05 18:10 | 45.76487 | 6.45180 | 28699 ft | 425 kts | 136° |
| 2026-05-05 18:11 | 45.74377 | 6.48135 | 28602 ft | 424 kts | 136° |
| 2026-05-05 18:11 | 45.70166 | 6.54022 | 28399 ft | 422 kts | 136° |
| 2026-05-05 18:12 | 45.65968 | 6.59878 | 28201 ft | 421 kts | 136° |
| 2026-05-05 18:12 | 45.63903 | 6.62754 | 28100 ft | 420 kts | 136° |
| 2026-05-05 18:12 | 45.61818 | 6.65667 | 28002 ft | 419 kts | 134° |
| 2026-05-05 18:12 | 45.59803 | 6.68676 | 27902 ft | 418 kts | 134° |
| 2026-05-05 18:13 | 45.57791 | 6.71671 | 27816 ft | 417 kts | 134° |
| 2026-05-05 18:13 | 45.55778 | 6.74652 | 27836 ft | 414 kts | 134° |
| 2026-05-05 18:13 | 45.53784 | 6.77599 | 27976 ft | 413 kts | 134° |
| 2026-05-05 18:14 | 45.49791 | 6.83485 | 27992 ft | 413 kts | 134° |
| 2026-05-05 18:14 | 45.45798 | 6.89360 | 27997 ft | 413 kts | 134° |
| 2026-05-05 18:14 | 45.43803 | 6.92289 | 27999 ft | 413 kts | 134° |
| 2026-05-05 18:15 | 45.41801 | 6.95224 | 28001 ft | 413 kts | 134° |
| 2026-05-05 18:15 | 45.39801 | 6.98156 | 28000 ft | 413 kts | 134° |
| 2026-05-05 18:15 | 45.37802 | 7.01083 | 28001 ft | 413 kts | 134° |
| 2026-05-05 18:15 | 45.35802 | 7.04006 | 27999 ft | 412 kts | 134° |
| 2026-05-05 18:16 | 45.33799 | 7.06931 | 28004 ft | 413 kts | 134° |
| 2026-05-05 18:16 | 45.31797 | 7.09852 | 27999 ft | 413 kts | 134° |
| 2026-05-05 18:16 | 45.29796 | 7.12769 | 27999 ft | 413 kts | 134° |
| 2026-05-05 18:16 | 45.27793 | 7.15685 | 27998 ft | 412 kts | 134° |
| 2026-05-05 18:17 | 45.25788 | 7.18600 | 28004 ft | 413 kts | 135° |
| 2026-05-05 18:17 | 45.23783 | 7.21513 | 28000 ft | 413 kts | 135° |
| 2026-05-05 18:17 | 45.21778 | 7.24423 | 27996 ft | 412 kts | 135° |
| 2026-05-05 18:17 | 45.19775 | 7.27327 | 28000 ft | 412 kts | 135° |
| 2026-05-05 18:18 | 45.17764 | 7.30238 | 28000 ft | 412 kts | 135° |
| 2026-05-05 18:18 | 45.13753 | 7.36038 | 27999 ft | 413 kts | 135° |
| 2026-05-05 18:18 | 45.11744 | 7.38938 | 28000 ft | 412 kts | 135° |
| 2026-05-05 18:19 | 45.09756 | 7.41804 | 28000 ft | 413 kts | 135° |
| 2026-05-05 18:19 | 45.07720 | 7.44737 | 28000 ft | 413 kts | 135° |
| 2026-05-05 18:19 | 45.05708 | 7.47630 | 28000 ft | 412 kts | 135° |
| 2026-05-05 18:19 | 45.03697 | 7.50521 | 28000 ft | 412 kts | 135° |
| 2026-05-05 18:20 | 45.01681 | 7.53417 | 28000 ft | 412 kts | 135° |
| 2026-05-05 18:20 | 44.99694 | 7.56266 | 28000 ft | 412 kts | 135° |
| 2026-05-05 18:20 | 44.97681 | 7.59149 | 28000 ft | 413 kts | 135° |
| 2026-05-05 18:20 | 44.95669 | 7.62029 | 28000 ft | 413 kts | 135° |
| 2026-05-05 18:21 | 44.93649 | 7.64917 | 28000 ft | 412 kts | 135° |
| 2026-05-05 18:21 | 44.91633 | 7.67796 | 28000 ft | 413 kts | 135° |
| 2026-05-05 18:21 | 44.89616 | 7.70674 | 28000 ft | 412 kts | 135° |
| 2026-05-05 18:21 | 44.87601 | 7.73545 | 28000 ft | 412 kts | 135° |
| 2026-05-05 18:22 | 44.85578 | 7.76426 | 28000 ft | 412 kts | 135° |
| 2026-05-05 18:22 | 44.83558 | 7.79298 | 28000 ft | 413 kts | 135° |
| 2026-05-05 18:22 | 44.81538 | 7.82168 | 28000 ft | 412 kts | 135° |
| 2026-05-05 18:22 | 44.79517 | 7.85036 | 28000 ft | 412 kts | 135° |
| 2026-05-05 18:23 | 44.77498 | 7.87897 | 28000 ft | 413 kts | 135° |
| 2026-05-05 18:23 | 44.75477 | 7.90759 | 27999 ft | 412 kts | 135° |
| 2026-05-05 18:23 | 44.73450 | 7.93627 | 28000 ft | 412 kts | 135° |
| 2026-05-05 18:24 | 44.69402 | 7.99344 | 27999 ft | 413 kts | 135° |
| 2026-05-05 18:24 | 44.67378 | 8.02198 | 27999 ft | 412 kts | 135° |
| 2026-05-05 18:24 | 44.65350 | 8.05055 | 28000 ft | 412 kts | 135° |
| 2026-05-05 18:24 | 44.63327 | 8.07903 | 28000 ft | 412 kts | 135° |
| 2026-05-05 18:25 | 44.61296 | 8.10757 | 28000 ft | 412 kts | 135° |
| 2026-05-05 18:25 | 44.57241 | 8.16448 | 27999 ft | 412 kts | 135° |
| 2026-05-05 18:26 | 44.53182 | 8.22134 | 27999 ft | 412 kts | 135° |
| 2026-05-05 18:26 | 44.51154 | 8.24969 | 27999 ft | 412 kts | 135° |
| 2026-05-05 18:26 | 44.49119 | 8.27812 | 28001 ft | 412 kts | 135° |
| 2026-05-05 18:26 | 44.47089 | 8.30645 | 28000 ft | 412 kts | 135° |
| 2026-05-05 18:27 | 44.45083 | 8.33441 | 28000 ft | 412 kts | 135° |
| 2026-05-05 18:27 | 44.43049 | 8.36274 | 28000 ft | 412 kts | 135° |
| 2026-05-05 18:27 | 44.41014 | 8.39105 | 28000 ft | 412 kts | 135° |
| 2026-05-05 18:27 | 44.38983 | 8.41926 | 28000 ft | 412 kts | 135° |
| 2026-05-05 18:28 | 44.34908 | 8.47581 | 27999 ft | 412 kts | 135° |
| 2026-05-05 18:28 | 44.30834 | 8.53223 | 28000 ft | 412 kts | 135° |
| 2026-05-05 18:29 | 44.28798 | 8.56037 | 28000 ft | 413 kts | 135° |
| 2026-05-05 18:29 | 44.26757 | 8.58856 | 28000 ft | 412 kts | 135° |
| 2026-05-05 18:29 | 44.22676 | 8.64484 | 28000 ft | 412 kts | 135° |
| 2026-05-05 18:30 | 44.20638 | 8.67290 | 28000 ft | 412 kts | 136° |
| 2026-05-05 18:30 | 44.18593 | 8.70102 | 28000 ft | 412 kts | 136° |
| 2026-05-05 18:30 | 44.16551 | 8.72909 | 28000 ft | 412 kts | 136° |
| 2026-05-05 18:30 | 44.14511 | 8.75708 | 28000 ft | 412 kts | 136° |
| 2026-05-05 18:31 | 44.12489 | 8.78480 | 28000 ft | 412 kts | 136° |
| 2026-05-05 18:31 | 44.10445 | 8.81280 | 28000 ft | 413 kts | 136° |
| 2026-05-05 18:31 | 44.08401 | 8.84078 | 28000 ft | 412 kts | 136° |
| 2026-05-05 18:31 | 44.06352 | 8.86879 | 28000 ft | 412 kts | 136° |
| 2026-05-05 18:32 | 44.04309 | 8.89668 | 28000 ft | 412 kts | 136° |
| 2026-05-05 18:32 | 44.02262 | 8.92461 | 28000 ft | 412 kts | 136° |
| 2026-05-05 18:32 | 44.00214 | 8.95252 | 28000 ft | 412 kts | 136° |
| 2026-05-05 18:32 | 43.98164 | 8.98043 | 28000 ft | 412 kts | 136° |
| 2026-05-05 18:33 | 43.96223 | 9.00683 | 28000 ft | 412 kts | 136° |
| 2026-05-05 18:33 | 43.94168 | 9.03475 | 28000 ft | 412 kts | 136° |
| 2026-05-05 18:33 | 43.92118 | 9.06257 | 28000 ft | 412 kts | 136° |
| 2026-05-05 18:33 | 43.90068 | 9.09037 | 28000 ft | 412 kts | 136° |
| 2026-05-05 18:34 | 43.88014 | 9.11818 | 28000 ft | 412 kts | 136° |
| 2026-05-05 18:34 | 43.85962 | 9.14595 | 28000 ft | 412 kts | 136° |
| 2026-05-05 18:34 | 43.83909 | 9.17371 | 28000 ft | 412 kts | 136° |
| 2026-05-05 18:34 | 43.81854 | 9.20145 | 28000 ft | 412 kts | 136° |
| 2026-05-05 18:35 | 43.79801 | 9.22915 | 28000 ft | 412 kts | 136° |
| 2026-05-05 18:35 | 43.77773 | 9.25648 | 28000 ft | 412 kts | 136° |
| 2026-05-05 18:35 | 43.75717 | 9.28416 | 28000 ft | 412 kts | 136° |
| 2026-05-05 18:35 | 43.73662 | 9.31180 | 28000 ft | 412 kts | 136° |
| 2026-05-05 18:36 | 43.71602 | 9.33948 | 28000 ft | 412 kts | 136° |
| 2026-05-05 18:36 | 43.69546 | 9.36708 | 28000 ft | 412 kts | 136° |
| 2026-05-05 18:36 | 43.67489 | 9.39467 | 28000 ft | 412 kts | 136° |
| 2026-05-05 18:36 | 43.65430 | 9.42224 | 28000 ft | 412 kts | 136° |
| 2026-05-05 18:37 | 43.63369 | 9.44983 | 28000 ft | 412 kts | 136° |
| 2026-05-05 18:37 | 43.61307 | 9.47738 | 28000 ft | 412 kts | 136° |
| 2026-05-05 18:37 | 43.59245 | 9.50493 | 28000 ft | 412 kts | 136° |
| 2026-05-05 18:37 | 43.57185 | 9.53241 | 28000 ft | 412 kts | 136° |
| 2026-05-05 18:38 | 43.55123 | 9.55989 | 28000 ft | 412 kts | 136° |
| 2026-05-05 18:38 | 43.53059 | 9.58738 | 28000 ft | 412 kts | 136° |
| 2026-05-05 18:38 | 43.50995 | 9.61483 | 28000 ft | 412 kts | 136° |
| 2026-05-05 18:38 | 43.48932 | 9.64224 | 28000 ft | 412 kts | 136° |
| 2026-05-05 18:39 | 43.46863 | 9.66971 | 28000 ft | 412 kts | 136° |
| 2026-05-05 18:39 | 43.44800 | 9.69707 | 28000 ft | 412 kts | 136° |
| 2026-05-05 18:39 | 43.42731 | 9.72447 | 28000 ft | 412 kts | 136° |
| 2026-05-05 18:39 | 43.40668 | 9.75178 | 28000 ft | 412 kts | 136° |
| 2026-05-05 18:40 | 43.38600 | 9.77912 | 28000 ft | 412 kts | 136° |
| 2026-05-05 18:40 | 43.36532 | 9.80644 | 28000 ft | 412 kts | 136° |
| 2026-05-05 18:40 | 43.34461 | 9.83376 | 28000 ft | 412 kts | 136° |
| 2026-05-05 18:40 | 43.32393 | 9.86104 | 28000 ft | 412 kts | 136° |
| 2026-05-05 18:41 | 43.30322 | 9.88831 | 28000 ft | 412 kts | 136° |
| 2026-05-05 18:41 | 43.28250 | 9.91557 | 28000 ft | 412 kts | 136° |
| 2026-05-05 18:41 | 43.26178 | 9.94280 | 28000 ft | 412 kts | 136° |
| 2026-05-05 18:41 | 43.24134 | 9.96964 | 28000 ft | 412 kts | 136° |
| 2026-05-05 18:42 | 43.22062 | 9.99682 | 28000 ft | 412 kts | 136° |
| 2026-05-05 18:42 | 43.19987 | 10.02401 | 28000 ft | 412 kts | 136° |
| 2026-05-05 18:42 | 43.17913 | 10.05116 | 28000 ft | 412 kts | 136° |
| 2026-05-05 18:42 | 43.15840 | 10.07827 | 28000 ft | 412 kts | 136° |
| 2026-05-05 18:43 | 43.13766 | 10.10538 | 28000 ft | 412 kts | 136° |
| 2026-05-05 18:43 | 43.11688 | 10.13250 | 28000 ft | 412 kts | 136° |
| 2026-05-05 18:43 | 43.09612 | 10.15956 | 28000 ft | 412 kts | 136° |
| 2026-05-05 18:43 | 43.07533 | 10.18665 | 28000 ft | 412 kts | 137° |
| 2026-05-05 18:44 | 43.05457 | 10.21367 | 28000 ft | 412 kts | 137° |
| 2026-05-05 18:44 | 43.03378 | 10.24069 | 28000 ft | 412 kts | 137° |
| 2026-05-05 18:44 | 43.01298 | 10.26771 | 28000 ft | 412 kts | 137° |
| 2026-05-05 18:44 | 42.99220 | 10.29468 | 28001 ft | 413 kts | 137° |
| 2026-05-05 18:45 | 42.97138 | 10.32166 | 28000 ft | 412 kts | 137° |
| 2026-05-05 18:45 | 42.95058 | 10.34860 | 28000 ft | 412 kts | 137° |
| 2026-05-05 18:45 | 42.92976 | 10.37554 | 28000 ft | 412 kts | 137° |
| 2026-05-05 18:45 | 42.90895 | 10.40244 | 28000 ft | 412 kts | 137° |
| 2026-05-05 18:46 | 42.88809 | 10.42936 | 28000 ft | 412 kts | 137° |
| 2026-05-05 18:46 | 42.86726 | 10.45625 | 28000 ft | 412 kts | 137° |
| 2026-05-05 18:46 | 42.84643 | 10.48308 | 28000 ft | 412 kts | 137° |
| 2026-05-05 18:46 | 42.82557 | 10.50995 | 28000 ft | 412 kts | 137° |
| 2026-05-05 18:47 | 42.80475 | 10.53673 | 28000 ft | 412 kts | 137° |
| 2026-05-05 18:47 | 42.78386 | 10.56356 | 28000 ft | 412 kts | 137° |
| 2026-05-05 18:47 | 42.76301 | 10.59033 | 28000 ft | 413 kts | 137° |
| 2026-05-05 18:47 | 42.74212 | 10.61712 | 28000 ft | 412 kts | 137° |
| 2026-05-05 18:48 | 42.72280 | 10.64582 | 27980 ft | 412 kts | 124° |
| 2026-05-05 18:48 | 42.70963 | 10.68025 | 28010 ft | 412 kts | 113° |
| 2026-05-05 18:48 | 42.69804 | 10.71588 | 27987 ft | 413 kts | 115° |
| 2026-05-05 18:48 | 42.68614 | 10.75138 | 27996 ft | 413 kts | 115° |
| 2026-05-05 18:49 | 42.67420 | 10.78698 | 27297 ft | 417 kts | 115° |
| 2026-05-05 18:49 | 42.66224 | 10.82259 | 26450 ft | 424 kts | 115° |
| 2026-05-05 18:49 | 42.65001 | 10.85897 | 25663 ft | 421 kts | 115° |
| 2026-05-05 18:49 | 42.63801 | 10.89468 | 25222 ft | 411 kts | 115° |
| 2026-05-05 18:50 | 42.62619 | 10.92979 | 24827 ft | 407 kts | 115° |
| 2026-05-05 18:50 | 42.61448 | 10.96454 | 24410 ft | 403 kts | 115° |
| 2026-05-05 18:50 | 42.60329 | 10.99927 | 23895 ft | 401 kts | 110° |
| 2026-05-05 18:50 | 42.59451 | 11.03544 | 23111 ft | 406 kts | 109° |
| 2026-05-05 18:51 | 42.58547 | 11.07158 | 22319 ft | 402 kts | 109° |
| 2026-05-05 18:51 | 42.57641 | 11.10713 | 21556 ft | 396 kts | 109° |
| 2026-05-05 18:51 | 42.56735 | 11.14217 | 20802 ft | 391 kts | 110° |
| 2026-05-05 18:51 | 42.55836 | 11.17679 | 20055 ft | 387 kts | 110° |
| 2026-05-05 18:52 | 42.54939 | 11.21121 | 19302 ft | 389 kts | 110° |
| 2026-05-05 18:52 | 42.54029 | 11.24606 | 18523 ft | 396 kts | 110° |
| 2026-05-05 18:52 | 42.53103 | 11.28148 | 17728 ft | 401 kts | 110° |
| 2026-05-05 18:52 | 42.52164 | 11.31732 | 16927 ft | 406 kts | 110° |
| 2026-05-05 18:53 | 42.51558 | 11.34041 | 17073 ft | 291 kts | 110° |
| 2026-05-05 18:53 | 42.50860 | 11.36704 | 16079 ft | 314 kts | 110° |
| 2026-05-05 18:53 | 42.50123 | 11.39508 | 15731 ft | 313 kts | 110° |
| 2026-05-05 18:53 | 42.49383 | 11.42320 | 15210 ft | 319 kts | 110° |
| 2026-05-05 18:54 | 42.48638 | 11.45145 | 14846 ft | 317 kts | 110° |
| 2026-05-05 18:54 | 42.47900 | 11.47945 | 14511 ft | 315 kts | 110° |
| 2026-05-05 18:54 | 42.47164 | 11.50732 | 14185 ft | 312 kts | 110° |
| 2026-05-05 18:54 | 42.46434 | 11.53492 | 13857 ft | 310 kts | 110° |
| 2026-05-05 18:55 | 42.45710 | 11.56227 | 13532 ft | 308 kts | 110° |
| 2026-05-05 18:55 | 42.44991 | 11.58942 | 13209 ft | 305 kts | 110° |
| 2026-05-05 18:55 | 42.44276 | 11.61638 | 12888 ft | 303 kts | 110° |
| 2026-05-05 18:55 | 42.43566 | 11.64311 | 12569 ft | 301 kts | 110° |
| 2026-05-05 18:56 | 42.42861 | 11.66963 | 12252 ft | 298 kts | 110° |
| 2026-05-05 18:56 | 42.42160 | 11.69595 | 11937 ft | 296 kts | 110° |
| 2026-05-05 18:56 | 42.41464 | 11.72210 | 11624 ft | 294 kts | 110° |
| 2026-05-05 18:56 | 42.40772 | 11.74803 | 11315 ft | 294 kts | 110° |
| 2026-05-05 18:57 | 42.40072 | 11.77427 | 11005 ft | 299 kts | 110° |
| 2026-05-05 18:57 | 42.39364 | 11.80074 | 10751 ft | 297 kts | 110° |
| 2026-05-05 18:57 | 42.38671 | 11.82664 | 10611 ft | 288 kts | 110° |
| 2026-05-05 18:57 | 42.37999 | 11.85171 | 10475 ft | 279 kts | 110° |
| 2026-05-05 18:58 | 42.37348 | 11.87602 | 10337 ft | 271 kts | 110° |
| 2026-05-05 18:58 | 42.36715 | 11.89961 | 10193 ft | 263 kts | 110° |
| 2026-05-05 18:58 | 42.36089 | 11.92203 | 10030 ft | 255 kts | 116° |
| 2026-05-05 18:58 | 42.34990 | 11.94024 | 9715 ft | 251 kts | 146° |
| 2026-05-05 18:59 | 42.33463 | 11.95126 | 9424 ft | 248 kts | 154° |
| 2026-05-05 18:59 | 42.31920 | 11.96141 | 9135 ft | 246 kts | 155° |
| 2026-05-05 18:59 | 42.30380 | 11.97136 | 8839 ft | 245 kts | 155° |
| 2026-05-05 18:59 | 42.28844 | 11.98118 | 8547 ft | 243 kts | 155° |
| 2026-05-05 19:00 | 42.27315 | 11.99086 | 8257 ft | 242 kts | 155° |
| 2026-05-05 19:00 | 42.25795 | 12.00044 | 7970 ft | 240 kts | 155° |
| 2026-05-05 19:00 | 42.24284 | 12.00993 | 7682 ft | 239 kts | 155° |
| 2026-05-05 19:00 | 42.22778 | 12.01937 | 7379 ft | 239 kts | 155° |
| 2026-05-05 19:01 | 42.21271 | 12.02879 | 7078 ft | 238 kts | 155° |
| 2026-05-05 19:01 | 42.19772 | 12.03817 | 6788 ft | 237 kts | 155° |
| 2026-05-05 19:01 | 42.18298 | 12.04738 | 6504 ft | 236 kts | 156° |
| 2026-05-05 19:01 | 42.16789 | 12.05679 | 6216 ft | 235 kts | 156° |
| 2026-05-05 19:02 | 42.15312 | 12.06601 | 5937 ft | 234 kts | 156° |
| 2026-05-05 19:02 | 42.13839 | 12.07519 | 5656 ft | 233 kts | 155° |
| 2026-05-05 19:02 | 42.12372 | 12.08434 | 5376 ft | 231 kts | 156° |
| 2026-05-05 19:02 | 42.10915 | 12.09341 | 5101 ft | 230 kts | 156° |
| 2026-05-05 19:03 | 42.09471 | 12.10240 | 4939 ft | 228 kts | 156° |
| 2026-05-05 19:03 | 42.08027 | 12.11138 | 4933 ft | 230 kts | 156° |
| 2026-05-05 19:03 | 42.06590 | 12.12022 | 4941 ft | 230 kts | 158° |
| 2026-05-05 19:03 | 42.05079 | 12.12762 | 4762 ft | 233 kts | 162° |
| 2026-05-05 19:04 | 42.03535 | 12.13423 | 4466 ft | 233 kts | 163° |
| 2026-05-05 19:04 | 42.01987 | 12.14072 | 4163 ft | 233 kts | 163° |
| 2026-05-05 19:04 | 42.00439 | 12.14722 | 3863 ft | 233 kts | 163° |
| 2026-05-05 19:04 | 41.98892 | 12.15372 | 3610 ft | 231 kts | 163° |
| 2026-05-05 19:05 | 41.97378 | 12.16009 | 3312 ft | 226 kts | 163° |
| 2026-05-05 19:05 | 41.95889 | 12.16634 | 2992 ft | 222 kts | 163° |
| 2026-05-05 19:05 | 41.94425 | 12.17249 | 2684 ft | 218 kts | 163° |
| 2026-05-05 19:05 | 41.92997 | 12.17848 | 2395 ft | 210 kts | 162° |
| 2026-05-05 19:06 | 41.91668 | 12.18405 | 2120 ft | 188 kts | 163° |
| 2026-05-05 19:06 | 41.90488 | 12.18901 | 1878 ft | 169 kts | 163° |
| 2026-05-05 19:06 | 41.89435 | 12.19343 | 1681 ft | 150 kts | 163° |
| 2026-05-05 19:06 | 41.88450 | 12.19755 | 1475 ft | 147 kts | 163° |
| 2026-05-05 19:07 | 41.87475 | 12.20165 | 1282 ft | 147 kts | 163° |
| 2026-05-05 19:07 | 41.86502 | 12.20578 | 1083 ft | 146 kts | 163° |
| 2026-05-05 19:07 | 41.85530 | 12.20986 | 809 ft | 146 kts | 163° |
| 2026-05-05 19:07 | 41.84569 | 12.21387 | 629 ft | 145 kts | 163° |
| 2026-05-05 19:08 | 41.83605 | 12.21776 | 476 ft | 145 kts | 164° |
| 2026-05-05 19:08 | 41.82644 | 12.22172 | 302 ft | 144 kts | 164° |
| 2026-05-05 19:08 | 41.81684 | 12.22568 | 105 ft | 144 kts | 163° |
| 2026-05-05 19:08 | 41.80787 | 12.22942 | 17 ft | 109 kts | 161° |
| 2026-05-05 19:09 | 41.80232 | 12.23177 | 18 ft | 68 kts | 163° |
| 2026-05-05 19:09 | 41.79924 | 12.23309 | 20 ft | 41 kts | 162° |
| 2026-05-05 19:09 | 41.79685 | 12.23423 | 16 ft | 35 kts | 158° |
| 2026-05-05 19:09 | 41.79501 | 12.23558 | 17 ft | 20 kts | 139° |
| 2026-05-05 19:10 | 41.79405 | 12.23681 | 17 ft | 15 kts | 131° |
| 2026-05-05 19:10 | 41.79360 | 12.23750 | 17 ft | 5 kts | 129° |
| 2026-05-05 19:10 | 41.79352 | 12.23764 | 17 ft | 0 kts | 127° |
| 2026-05-05 19:11 | 41.79350 | 12.23768 | 17 ft | 1 kts | 126° |
| 2026-05-05 19:11 | 41.79344 | 12.23781 | 17 ft | 2 kts | 120° |
| 2026-05-05 19:11 | 41.79339 | 12.23808 | 18 ft | 4 kts | 93° |
| 2026-05-05 19:12 | 41.79363 | 12.23861 | 18 ft | 12 kts | 27° |
| 2026-05-05 19:12 | 41.79459 | 12.23841 | 17 ft | 16 kts | 343° |
| 2026-05-05 19:12 | 41.79565 | 12.23799 | 17 ft | 15 kts | 343° |
| 2026-05-05 19:12 | 41.79674 | 12.23753 | 17 ft | 17 kts | 342° |
| 2026-05-05 19:13 | 41.79791 | 12.23704 | 17 ft | 11 kts | 342° |
| 2026-05-05 19:13 | 41.79836 | 12.23744 | 16 ft | 9 kts | 76° |
| 2026-05-05 19:13 | 41.79860 | 12.23837 | 16 ft | 12 kts | 69° |
| 2026-05-05 19:13 | 41.79892 | 12.23953 | 17 ft | 15 kts | 70° |
| 2026-05-05 19:14 | 41.79917 | 12.24098 | 17 ft | 17 kts | 93° |
| 2026-05-05 19:14 | 41.79939 | 12.24262 | 17 ft | 19 kts | 70° |
| 2026-05-05 19:14 | 41.79989 | 12.24439 | 16 ft | 21 kts | 69° |
| 2026-05-05 19:14 | 41.80042 | 12.24635 | 16 ft | 23 kts | 70° |
| 2026-05-05 19:15 | 41.80094 | 12.24824 | 16 ft | 17 kts | 72° |
| 2026-05-05 19:15 | 41.80109 | 12.24990 | 16 ft | 19 kts | 96° |
| 2026-05-05 19:15 | 41.80076 | 12.25170 | 16 ft | 21 kts | 109° |
| 2026-05-05 19:15 | 41.80021 | 12.25343 | 16 ft | 19 kts | 116° |
| 2026-05-05 19:16 | 41.79978 | 12.25466 | 16 ft | 14 kts | 116° |
| 2026-05-05 19:16 | 41.79935 | 12.25588 | 16 ft | 15 kts | 115° |
| 2026-05-05 19:16 | 41.79900 | 12.25687 | 16 ft | 13 kts | 116° |
| 2026-05-05 19:16 | 41.79860 | 12.25799 | 16 ft | 11 kts | 115° |
| 2026-05-05 19:17 | 41.79822 | 12.25828 | 16 ft | 7 kts | 184° |
| 2026-05-05 19:17 | 41.79773 | 12.25803 | 16 ft | 9 kts | 204° |
| 2026-05-05 19:17 | 41.79745 | 12.25787 | 16 ft | 2 kts | 193° |
| 2026-05-05 19:17 | 41.79727 | 12.25795 | 16 ft | 3 kts | 143° |
| 2026-05-05 19:18 | 41.79712 | 12.25826 | 16 ft | 2 kts | 118° |
| 2026-05-05 19:18 | 41.79707 | 12.25840 | 16 ft | 0 kts | 116° |